Terminal Aerodrome Forecast
Issued by NWS

Home | Current Version | Previous Version | Text Only | Print | Product List | Glossary On
Versions: 1 2 3 4 5 6 7 8 9 10 11 12 13 14 15 16
000
FTUS44 KCRP 171700
TAFALI
TAF
KALI 171730Z 1718/1818 17010G15KT P6SM VCTS SCT035CB BKN040
      TEMPO 1720/1723 4SM TSRA BKN035CB
     FM180000 16012G18KT P6SM SCT040
     FM180300 16006KT P6SM FEW015 SCT040
      TEMPO 1811/1815 BKN009
     FM181600 17010KT P6SM VCSH FEW030 SCT250=

USA.gov is the U.S. government's official web portal to all federal, state and local government web resources and services.